Time;durP1;ratioP1;P1;durP2;ratioP2;P2;SDS_P1;SDS_P2;PMS_P1;PMS_P2;Temp;Humidity;BMP_temperature;BMP_pressure;BME280_temperature;BME280_humidity;BME280_pressure;Samples;Min_cycle;Max_cycle;Signal;HPM_P1;HPM_P2
2021/03/11 00:02:07;;;;;;;11.45;5.15;;;0.40;63.30;;;;;;5051661;28;20041;-61
2021/03/11 00:04:34;;;;;;;13.88;5.10;;;0.40;63.10;;;;;;5047606;28;20043;-61
2021/03/11 00:07:01;;;;;;;9.82;4.43;;;0.40;63.60;;;;;;5068775;28;20041;-61
2021/03/11 00:09:27;;;;;;;11.80;4.45;;;0.30;63.60;;;;;;5067932;28;20044;-61
2021/03/11 00:11:54;;;;;;;13.20;5.63;;;0.20;63.80;;;;;;5056362;28;20080;-61
2021/03/11 00:14:20;;;;;;;15.30;5.90;;;0.20;64.20;;;;;;5065957;28;20045;-61
2021/03/11 00:16:47;;;;;;;10.73;4.88;;;0.10;64.70;;;;;;5070553;28;20052;-61
2021/03/11 00:19:14;;;;;;;14.98;5.20;;;0.10;65.20;;;;;;5070179;28;20060;-61
2021/03/11 00:21:40;;;;;;;14.15;5.30;;;0.00;65.00;;;;;;5044882;28;20052;-61
2021/03/11 00:24:07;;;;;;;12.90;4.57;;;0.00;64.90;;;;;;5071178;28;20030;-61
2021/03/11 00:26:34;;;;;;;15.43;5.85;;;0.00;64.20;;;;;;5070050;28;20044;-62
2021/03/11 00:29:00;;;;;;;12.18;4.70;;;0.00;65.60;;;;;;5046993;28;20044;-61
2021/03/11 00:31:27;;;;;;;15.90;5.50;;;0.00;65.30;;;;;;5069444;28;20036;-61
2021/03/11 00:33:53;;;;;;;11.25;4.55;;;0.10;65.20;;;;;;5037873;28;20154;-61
2021/03/11 00:36:20;;;;;;;14.30;5.45;;;0.00;65.30;;;;;;5077840;28;20047;-61
2021/03/11 00:38:46;;;;;;;17.13;6.00;;;0.00;65.00;;;;;;5067295;28;20128;-61
2021/03/11 00:41:13;;;;;;;19.90;5.63;;;0.00;65.00;;;;;;5045527;28;20048;-61
2021/03/11 00:43:40;;;;;;;14.50;5.20;;;0.00;65.20;;;;;;5050914;28;20036;-61
2021/03/11 00:46:06;;;;;;;11.32;4.20;;;0.00;65.60;;;;;;5069105;28;20090;-61
2021/03/11 00:48:33;;;;;;;16.52;5.22;;;-0.10;64.80;;;;;;5067806;28;20139;-61
2021/03/11 00:50:59;;;;;;;11.80;4.82;;;-0.20;65.50;;;;;;5066051;28;20036;-61
2021/03/11 00:53:26;;;;;;;13.63;5.10;;;-0.20;65.50;;;;;;5050577;28;20510;-61
2021/03/11 00:55:53;;;;;;;14.25;4.80;;;-0.20;65.50;;;;;;5050942;28;20044;-61
2021/03/11 00:58:19;;;;;;;13.07;5.00;;;-0.20;66.40;;;;;;5043452;28;20503;-61
2021/03/11 01:00:46;;;;;;;16.75;5.20;;;-0.30;65.50;;;;;;5036270;28;20040;-61
2021/03/11 01:03:23;;;;;;;14.35;5.10;;;-0.40;65.90;;;;;;5053458;28;20151;-61
2021/03/11 01:05:55;;;;;;;15.38;5.05;;;-0.40;66.90;;;;;;5058095;28;20040;-61
2021/03/11 01:08:42;;;;;;;16.65;5.25;;;-0.40;67.30;;;;;;5048442;28;20506;-61
2021/03/11 01:11:09;;;;;;;11.60;4.53;;;-0.40;67.20;;;;;;5045230;28;20049;-61
2021/03/11 01:13:36;;;;;;;15.38;5.32;;;-0.40;67.40;;;;;;5066164;28;20044;-61
2021/03/11 01:16:02;;;;;;;10.95;4.47;;;-0.40;67.80;;;;;;5069469;28;20353;-61
2021/03/11 01:18:29;;;;;;;14.32;5.25;;;-0.50;66.80;;;;;;5071298;28;20387;-61
2021/03/11 01:20:56;;;;;;;15.45;5.90;;;-0.50;67.40;;;;;;5067515;28;20102;-61
2021/03/11 01:23:22;;;;;;;13.40;4.70;;;-0.50;67.60;;;;;;5050808;28;20442;-61
2021/03/11 01:25:48;;;;;;;16.65;5.60;;;-0.50;67.30;;;;;;5052089;28;20048;-61
2021/03/11 01:28:15;;;;;;;17.90;5.68;;;-0.50;67.40;;;;;;5070690;28;20110;-61
2021/03/11 01:30:41;;;;;;;19.60;6.20;;;-0.60;68.50;;;;;;5070010;28;20037;-61
2021/03/11 01:33:08;;;;;;;13.75;6.07;;;-0.60;67.80;;;;;;5072003;28;20040;-61
2021/03/11 01:35:34;;;;;;;16.38;5.10;;;-0.60;68.30;;;;;;5069023;28;20138;-61
2021/03/11 01:38:01;;;;;;;12.18;4.55;;;-0.70;68.00;;;;;;5069658;28;20052;-61
2021/03/11 01:40:28;;;;;;;17.88;6.25;;;-0.70;68.40;;;;;;5070786;28;20139;-61
2021/03/11 01:42:54;;;;;;;14.13;4.90;;;-0.70;69.60;;;;;;5069661;28;20043;-61
2021/03/11 01:45:22;;;;;;;15.73;5.70;;;-0.80;69.10;;;;;;5070509;28;20086;-61
2021/03/11 01:47:48;;;;;;;15.20;5.88;;;-0.80;69.40;;;;;;5070496;28;20028;-61
2021/03/11 01:50:15;;;;;;;16.90;5.65;;;-0.90;69.30;;;;;;5040192;28;20397;-61
2021/03/11 01:52:42;;;;;;;13.07;5.10;;;-0.90;69.80;;;;;;5048982;28;20075;-61
2021/03/11 01:55:09;;;;;;;17.30;5.30;;;-0.90;69.80;;;;;;5039576;28;20045;-61
2021/03/11 01:57:36;;;;;;;12.15;5.00;;;-1.00;70.10;;;;;;5053123;28;20124;-61
2021/03/11 02:00:10;;;;;;;13.98;5.15;;;-1.00;70.70;;;;;;5071491;28;20044;-61
2021/03/11 02:02:43;;;;;;;15.23;5.53;;;-1.00;69.70;;;;;;5075047;28;20040;-61
2021/03/11 02:05:21;;;;;;;21.35;5.93;;;-1.10;70.10;;;;;;5052768;28;20134;-61
2021/03/11 02:07:48;;;;;;;22.55;6.57;;;-1.20;70.10;;;;;;5055040;28;20471;-62
2021/03/11 02:10:20;;;;;;;16.58;7.00;;;-1.20;70.30;;;;;;5074494;28;20479;-61
2021/03/11 02:13:13;;;;;;;18.10;6.90;;;-1.20;70.80;;;;;;5075466;28;20036;-61
2021/03/11 02:16:03;;;;;;;14.50;5.18;;;-1.30;70.90;;;;;;5070080;28;20056;-61
2021/03/11 02:18:52;;;;;;;18.45;6.10;;;-1.20;70.40;;;;;;5054449;28;20036;-61
2021/03/11 02:21:24;;;;;;;19.95;6.43;;;-1.30;70.50;;;;;;5047568;28;20537;-61
2021/03/11 02:24:29;;;;;;;17.60;5.85;;;-1.30;70.80;;;;;;5073787;28;20041;-61
2021/03/11 02:27:23;;;;;;;20.58;7.60;;;-1.40;70.50;;;;;;5048266;28;20048;-61
2021/03/11 02:29:52;;;;;;;26.50;8.02;;;-1.40;70.90;;;;;;5069586;28;21224;-61
2021/03/11 02:32:21;;;;;;;20.30;6.60;;;-1.50;71.40;;;;;;5074700;28;20052;-61
2021/03/11 02:34:52;;;;;;;18.13;5.18;;;-1.50;71.20;;;;;;5050337;28;20044;-61
2021/03/11 02:37:25;;;;;;;15.13;5.03;;;-1.60;71.30;;;;;;5071625;28;20049;-61
2021/03/11 02:40:02;;;;;;;17.58;4.75;;;-1.60;71.40;;;;;;5074544;28;20045;-61
2021/03/11 02:42:34;;;;;;;16.90;5.57;;;-1.60;71.70;;;;;;5073640;28;20479;-61
2021/03/11 02:45:02;;;;;;;17.80;6.22;;;-1.70;72.20;;;;;;5071201;28;20833;-61
2021/03/11 02:47:30;;;;;;;21.50;6.70;;;-1.70;71.80;;;;;;5070940;28;20055;-61
2021/03/11 02:49:59;;;;;;;16.08;5.78;;;-1.70;72.40;;;;;;5065577;28;20058;-61
2021/03/11 02:52:28;;;;;;;19.98;5.55;;;-1.80;72.10;;;;;;5054247;28;20506;-61
2021/03/11 02:54:56;;;;;;;15.95;5.85;;;-1.80;72.80;;;;;;5051352;28;20056;-61
2021/03/11 02:57:23;;;;;;;17.65;6.10;;;-1.80;72.80;;;;;;5073774;28;20044;-61
2021/03/11 02:59:51;;;;;;;16.40;5.82;;;-1.90;72.80;;;;;;5054051;28;20044;-61
2021/03/11 03:02:18;;;;;;;18.38;5.80;;;-1.90;73.30;;;;;;5053626;28;20064;-61
2021/03/11 03:04:51;;;;;;;15.85;5.78;;;-2.00;72.80;;;;;;5072466;28;20033;-61
2021/03/11 03:07:19;;;;;;;17.83;5.90;;;-2.00;73.60;;;;;;5070455;28;20368;-61
2021/03/11 03:09:50;;;;;;;17.83;5.68;;;-2.00;73.50;;;;;;5073750;28;20040;-60
2021/03/11 03:12:18;;;;;;;17.20;5.80;;;-2.00;73.30;;;;;;5073634;28;20432;-61
2021/03/11 03:14:46;;;;;;;17.88;6.88;;;-2.00;73.30;;;;;;5051917;28;20404;-61
2021/03/11 03:17:16;;;;;;;25.98;6.57;;;-2.00;73.90;;;;;;5071202;28;20458;-60
2021/03/11 03:19:44;;;;;;;15.18;5.75;;;-2.00;74.00;;;;;;5052615;28;20080;-60
2021/03/11 03:22:12;;;;;;;18.23;7.15;;;-2.00;73.60;;;;;;5070804;28;20541;-61
2021/03/11 03:24:42;;;;;;;16.33;6.68;;;-2.10;74.30;;;;;;5070875;28;20032;-61
2021/03/11 03:27:08;;;;;;;18.05;5.97;;;-2.10;73.70;;;;;;5072664;28;20638;-61
2021/03/11 03:29:36;;;;;;;18.40;5.95;;;-2.10;73.80;;;;;;5076977;28;20041;-61
2021/03/11 03:32:03;;;;;;;14.88;5.50;;;-2.10;73.60;;;;;;5070887;28;20098;-61
2021/03/11 03:34:30;;;;;;;19.73;6.45;;;-2.10;73.50;;;;;;5052906;28;20037;-61
2021/03/11 03:36:58;;;;;;;18.65;7.25;;;-2.10;73.30;;;;;;5071004;28;20117;-61
2021/03/11 03:39:25;;;;;;;22.08;6.20;;;-2.10;73.70;;;;;;5071323;28;20593;-61
2021/03/11 03:41:56;;;;;;;20.73;7.43;;;-2.30;74.40;;;;;;5069821;28;20076;-61
2021/03/11 03:44:33;;;;;;;23.23;7.30;;;-2.30;74.20;;;;;;5070591;28;20092;-61
2021/03/11 03:47:01;;;;;;;22.08;6.88;;;-2.30;74.60;;;;;;5070486;28;20040;-61
2021/03/11 03:49:28;;;;;;;18.38;6.75;;;-2.30;75.20;;;;;;5068914;28;20041;-61
2021/03/11 03:51:55;;;;;;;27.80;7.75;;;-2.30;73.90;;;;;;5074345;28;20082;-61
2021/03/11 03:54:26;;;;;;;19.60;7.00;;;-2.40;74.70;;;;;;5053369;28;20044;-61
2021/03/11 03:57:00;;;;;;;24.65;7.78;;;-2.40;74.20;;;;;;5076563;28;20051;-61
2021/03/11 03:59:31;;;;;;;29.90;9.43;;;-2.40;74.70;;;;;;5077300;28;20434;-61
2021/03/11 04:01:58;;;;;;;23.90;8.73;;;-2.50;74.60;;;;;;5065621;28;20047;-61
2021/03/11 04:04:28;;;;;;;25.30;9.02;;;-2.40;75.70;;;;;;5050363;28;20538;-61
2021/03/11 04:06:57;;;;;;;27.67;9.57;;;-2.40;75.10;;;;;;5052016;28;20044;-61
2021/03/11 04:09:26;;;;;;;31.83;9.20;;;-2.50;75.30;;;;;;5069218;28;20046;-61
2021/03/11 04:11:53;;;;;;;22.80;8.55;;;-2.50;75.10;;;;;;5066365;28;20045;-61
2021/03/11 04:14:21;;;;;;;30.25;10.13;;;-2.50;75.50;;;;;;5065384;28;20094;-61
2021/03/11 04:16:49;;;;;;;33.22;9.93;;;-2.50;75.70;;;;;;5071740;28;20518;-61
2021/03/11 04:19:16;;;;;;;30.80;9.23;;;-2.50;75.80;;;;;;5069872;28;20100;-60
2021/03/11 04:21:44;;;;;;;28.38;9.65;;;-2.60;76.10;;;;;;5066940;28;20511;-61
2021/03/11 04:24:12;;;;;;;27.83;9.38;;;-2.60;76.00;;;;;;5067403;28;20372;-61
2021/03/11 04:26:39;;;;;;;28.60;8.75;;;-2.60;75.80;;;;;;5076285;28;20511;-61
2021/03/11 04:29:07;;;;;;;25.25;8.23;;;-2.60;75.60;;;;;;5070653;28;20391;-61
2021/03/11 04:31:34;;;;;;;26.83;9.90;;;-2.60;75.70;;;;;;5032483;28;20036;-61
2021/03/11 04:34:03;;;;;;;30.75;9.05;;;-2.70;76.40;;;;;;5069812;28;20051;-61
2021/03/11 04:36:30;;;;;;;44.08;10.82;;;-2.70;76.90;;;;;;5070309;28;20044;-61
2021/03/11 04:38:57;;;;;;;39.13;11.85;;;-2.70;77.30;;;;;;5050170;28;20407;-61
2021/03/11 04:41:25;;;;;;;33.20;10.95;;;-2.80;75.80;;;;;;5069804;28;20063;-61
2021/03/11 04:43:56;;;;;;;37.63;10.45;;;-2.80;76.40;;;;;;5070082;28;20047;-61
2021/03/11 04:46:24;;;;;;;35.72;10.95;;;-2.80;77.00;;;;;;5049322;28;20043;-61
2021/03/11 04:48:52;;;;;;;36.03;11.30;;;-2.80;77.50;;;;;;5051725;28;20044;-61
2021/03/11 04:51:20;;;;;;;28.20;9.45;;;-2.80;77.80;;;;;;5064120;28;20032;-61
2021/03/11 04:53:46;;;;;;;26.52;10.20;;;-2.80;78.40;;;;;;5070330;28;20044;-61
2021/03/11 04:56:15;;;;;;;36.15;11.05;;;-2.80;78.40;;;;;;5073698;28;20043;-61
2021/03/11 04:58:42;;;;;;;30.70;9.23;;;-2.90;77.70;;;;;;5054252;28;20044;-61
2021/03/11 05:01:13;;;;;;;31.67;9.63;;;-2.90;77.10;;;;;;5043405;28;20041;-61
2021/03/11 05:03:44;;;;;;;30.65;9.68;;;-2.90;78.00;;;;;;5064754;28;20411;-61
2021/03/11 05:06:12;;;;;;;30.23;10.07;;;-2.90;78.10;;;;;;5070140;28;20553;-60
2021/03/11 05:08:40;;;;;;;32.05;11.85;;;-2.90;78.40;;;;;;5068354;28;20407;-61
2021/03/11 05:11:07;;;;;;;40.00;12.05;;;-2.90;78.00;;;;;;5070183;28;20061;-61
2021/03/11 05:13:34;;;;;;;44.55;13.82;;;-3.00;77.90;;;;;;5063537;28;20044;-61
2021/03/11 05:16:00;;;;;;;61.53;16.75;;;-3.00;77.80;;;;;;5062494;28;20499;-60
2021/03/11 05:18:27;;;;;;;52.05;15.40;;;-3.00;78.40;;;;;;5070657;28;20105;-61
2021/03/11 05:20:54;;;;;;;43.13;13.63;;;-3.00;78.80;;;;;;5049743;28;20044;-61
2021/03/11 05:23:21;;;;;;;36.17;12.48;;;-3.00;79.00;;;;;;5068101;28;20051;-61
2021/03/11 05:25:50;;;;;;;32.17;11.23;;;-3.00;79.30;;;;;;5059019;28;20461;-61
2021/03/11 05:28:17;;;;;;;40.22;11.85;;;-2.90;78.90;;;;;;5050413;28;20037;-61
2021/03/11 05:30:44;;;;;;;40.80;12.48;;;-2.90;79.00;;;;;;5067938;28;20029;-61
2021/03/11 05:33:10;;;;;;;40.53;13.32;;;-2.90;78.80;;;;;;5057584;28;20048;-60
2021/03/11 05:35:37;;;;;;;42.35;12.45;;;-2.90;78.60;;;;;;5051520;28;20480;-61
2021/03/11 05:38:06;;;;;;;37.08;12.30;;;-3.00;80.20;;;;;;5041573;28;20383;-61
2021/03/11 05:40:33;;;;;;;38.90;13.82;;;-3.00;80.50;;;;;;5052761;28;20410;-61
2021/03/11 05:43:03;;;;;;;39.85;11.93;;;-2.90;80.70;;;;;;5070507;28;20159;-61
2021/03/11 05:45:30;;;;;;;39.50;12.65;;;-2.90;80.80;;;;;;5067919;28;20036;-61
2021/03/11 05:47:58;;;;;;;36.92;12.57;;;-2.80;80.80;;;;;;5061461;28;20044;-61
2021/03/11 05:50:25;;;;;;;44.13;13.23;;;-2.80;81.00;;;;;;5058083;28;20041;-61
2021/03/11 05:52:53;;;;;;;31.80;11.88;;;-2.70;81.30;;;;;;5066956;28;20040;-60
2021/03/11 05:55:20;;;;;;;39.05;13.95;;;-2.70;81.20;;;;;;5044521;28;20041;-61
2021/03/11 05:57:46;;;;;;;34.90;13.25;;;-2.60;81.10;;;;;;5060247;28;20547;-62
2021/03/11 06:00:18;;;;;;;38.65;12.57;;;-2.60;80.40;;;;;;5068000;28;20048;-61
2021/03/11 06:02:47;;;;;;;51.28;14.85;;;-2.50;80.80;;;;;;5061808;28;20036;-61
2021/03/11 06:05:16;;;;;;;40.83;14.35;;;-2.50;80.90;;;;;;5049409;28;20044;-60
2021/03/11 06:07:44;;;;;;;44.90;14.15;;;-2.40;81.10;;;;;;5068038;28;20115;-61
2021/03/11 06:10:14;;;;;;;40.42;14.27;;;-2.30;81.00;;;;;;5050008;28;20105;-61
2021/03/11 06:12:42;;;;;;;40.95;14.77;;;-2.30;81.20;;;;;;5055606;28;20081;-61
2021/03/11 06:15:12;;;;;;;42.58;15.35;;;-2.20;80.80;;;;;;5052845;28;20430;-61
2021/03/11 06:17:40;;;;;;;52.67;16.75;;;-2.10;81.20;;;;;;5040810;28;20047;-61
2021/03/11 06:20:08;;;;;;;41.13;14.13;;;-2.10;81.00;;;;;;5069821;28;20463;-61
2021/03/11 06:22:36;;;;;;;54.72;16.60;;;-2.00;81.20;;;;;;5068629;28;20474;-61
2021/03/11 06:25:06;;;;;;;39.38;12.98;;;-2.00;81.10;;;;;;5034615;28;20053;-67
2021/03/11 06:27:33;;;;;;;50.60;16.95;;;-1.90;81.30;;;;;;5062436;28;20033;-61
2021/03/11 06:30:00;;;;;;;37.03;15.38;;;-1.80;80.30;;;;;;5067500;28;20033;-61
2021/03/11 06:32:27;;;;;;;43.80;15.70;;;-1.80;79.90;;;;;;5047808;28;20041;-61
2021/03/11 06:34:54;;;;;;;44.33;15.30;;;-1.70;80.40;;;;;;5059101;28;20045;-61
2021/03/11 06:37:36;;;;;;;38.70;15.35;;;-1.60;79.70;;;;;;5050461;28;20046;-61
2021/03/11 06:40:17;;;;;;;34.45;12.80;;;-1.50;79.70;;;;;;5053428;28;20495;-61
2021/03/11 06:42:45;;;;;;;24.73;9.55;;;-1.40;79.30;;;;;;5069596;28;20391;-61
2021/03/11 06:45:31;;;;;;;23.80;8.02;;;-1.30;78.00;;;;;;5055339;28;20048;-61
2021/03/11 06:48:26;;;;;;;26.50;7.32;;;-1.20;78.00;;;;;;5071958;28;20124;-61
2021/03/11 06:50:56;;;;;;;15.00;6.40;;;-1.10;77.70;;;;;;5073913;28;20134;-61
2021/03/11 06:53:23;;;;;;;28.98;7.90;;;-1.00;77.60;;;;;;5066735;28;20575;-61
2021/03/11 06:55:49;;;;;;;23.13;8.38;;;-0.90;77.50;;;;;;5053920;28;20131;-61
2021/03/11 06:58:22;;;;;;;23.75;8.43;;;-0.80;77.80;;;;;;5057292;28;20045;-61
2021/03/11 07:01:05;;;;;;;22.45;7.75;;;-0.70;78.00;;;;;;5057627;28;20488;-61
2021/03/11 07:03:43;;;;;;;16.75;6.57;;;-0.60;77.80;;;;;;5067134;28;20040;-61
2021/03/11 07:06:19;;;;;;;18.77;5.70;;;-0.40;77.40;;;;;;5073631;28;20048;-61
2021/03/11 07:08:50;;;;;;;20.65;7.43;;;-0.30;76.20;;;;;;5049535;28;20049;-61
2021/03/11 07:11:16;;;;;;;18.02;6.68;;;-0.20;76.00;;;;;;5060170;28;20041;-61
2021/03/11 07:13:43;;;;;;;19.17;6.60;;;-0.20;75.70;;;;;;5064521;28;20037;-61
2021/03/11 07:16:20;;;;;;;21.23;7.22;;;0.00;74.70;;;;;;5052748;28;20052;-61
2021/03/11 07:18:48;;;;;;;17.35;6.70;;;0.10;73.90;;;;;;5079955;28;20097;-61
2021/03/11 07:21:46;;;;;;;25.08;8.07;;;0.20;74.10;;;;;;5071594;28;20049;-61
2021/03/11 07:24:35;;;;;;;21.67;7.95;;;0.30;73.90;;;;;;5069260;28;20059;-61
2021/03/11 07:27:05;;;;;;;18.58;6.57;;;0.40;73.80;;;;;;5072345;28;20116;-61
2021/03/11 07:29:32;;;;;;;16.88;6.32;;;0.40;72.90;;;;;;5052305;28;20060;-61
2021/03/11 07:32:01;;;;;;;19.17;7.10;;;0.50;72.20;;;;;;5069493;28;20394;-61
2021/03/11 07:34:36;;;;;;;14.32;6.05;;;0.70;72.30;;;;;;5069329;28;20467;-61
2021/03/11 07:37:03;;;;;;;14.27;5.70;;;0.70;70.90;;;;;;5068687;28;20583;-61
2021/03/11 07:39:39;;;;;;;18.33;5.75;;;0.80;70.70;;;;;;5058631;28;20055;-61
2021/03/11 07:42:08;;;;;;;20.15;7.40;;;0.90;71.10;;;;;;5078009;28;20503;-61
2021/03/11 07:44:37;;;;;;;19.10;6.07;;;1.00;71.30;;;;;;5069120;28;20454;-61
2021/03/11 07:47:09;;;;;;;17.70;5.93;;;1.10;70.70;;;;;;5078379;28;20450;-61
2021/03/11 07:49:36;;;;;;;12.95;5.53;;;1.20;69.60;;;;;;5070031;28;20040;-61
2021/03/11 07:52:04;;;;;;;17.27;6.28;;;1.30;69.10;;;;;;5052909;28;20048;-61
2021/03/11 07:54:35;;;;;;;18.15;6.38;;;1.40;69.00;;;;;;5067951;28;20043;-61
2021/03/11 07:57:02;;;;;;;20.48;6.70;;;1.60;68.00;;;;;;5049958;28;20060;-61
2021/03/11 07:59:29;;;;;;;19.45;6.57;;;1.70;66.50;;;;;;5055853;28;20043;-61
2021/03/11 08:02:18;;;;;;;17.85;6.90;;;1.80;66.20;;;;;;5052161;28;20048;-61
2021/03/11 08:04:46;;;;;;;17.92;5.53;;;1.90;66.40;;;;;;5067493;28;20072;-62
2021/03/11 08:07:27;;;;;;;14.43;5.22;;;1.90;66.00;;;;;;5081774;28;20116;-61
2021/03/11 08:09:55;;;;;;;15.57;5.75;;;2.00;64.90;;;;;;5071232;28;20044;-61
2021/03/11 08:12:28;;;;;;;18.58;6.10;;;2.10;64.40;;;;;;5035702;28;20083;-61
2021/03/11 08:14:56;;;;;;;13.95;5.63;;;2.20;64.60;;;;;;5066703;28;20052;-61
2021/03/11 08:17:55;;;;;;;12.18;5.68;;;2.30;64.40;;;;;;5077978;28;20083;-61
2021/03/11 08:20:25;;;;;;;13.95;4.57;;;2.40;64.40;;;;;;5008810;28;20144;-61
2021/03/11 08:22:57;;;;;;;16.48;5.38;;;2.40;63.90;;;;;;4977803;28;20050;-61
2021/03/11 08:25:32;;;;;;;16.05;5.78;;;2.60;64.20;;;;;;5007478;28;20390;-61
2021/03/11 08:28:00;;;;;;;14.88;5.65;;;2.70;64.10;;;;;;4990146;28;20049;-61
2021/03/11 08:30:41;;;;;;;22.10;6.82;;;2.80;63.90;;;;;;5010253;28;20050;-61
2021/03/11 08:33:09;;;;;;;16.40;5.28;;;3.00;63.00;;;;;;5008223;28;20057;-61
2021/03/11 08:35:41;;;;;;;16.48;6.07;;;3.10;63.00;;;;;;4990939;28;20464;-61
2021/03/11 08:38:19;;;;;;;13.10;5.13;;;3.20;62.30;;;;;;5006481;28;20054;-61
2021/03/11 08:40:54;;;;;;;17.60;5.88;;;3.30;61.90;;;;;;5006211;28;20065;-61
2021/03/11 08:43:39;;;;;;;15.25;6.20;;;3.40;61.70;;;;;;5006943;28;20749;-61
2021/03/11 08:46:08;;;;;;;15.27;5.47;;;3.50;61.70;;;;;;5006259;28;20088;-62
2021/03/11 08:48:52;;;;;;;15.68;5.60;;;3.50;60.80;;;;;;5015639;28;20128;-62
2021/03/11 08:51:22;;;;;;;18.02;6.13;;;3.60;60.80;;;;;;5006381;28;20049;-61
2021/03/11 08:53:52;;;;;;;18.08;6.85;;;3.70;60.60;;;;;;4971770;28;20045;-61
2021/03/11 08:56:18;;;;;;;17.23;6.00;;;3.70;60.80;;;;;;5034289;28;20052;-61
2021/03/11 08:59:02;;;;;;;18.23;5.75;;;3.80;60.50;;;;;;5069538;28;20048;-61
2021/03/11 09:01:48;;;;;;;14.88;6.30;;;3.90;60.30;;;;;;5062410;28;20044;-61
2021/03/11 09:04:21;;;;;;;15.68;5.38;;;4.00;60.80;;;;;;5068073;28;20028;-62
2021/03/11 09:06:59;;;;;;;17.00;6.18;;;4.10;60.00;;;;;;5050426;28;20094;-62
2021/03/11 09:09:35;;;;;;;18.52;6.03;;;4.20;59.60;;;;;;5067793;28;20575;-62
2021/03/11 09:12:10;;;;;;;19.88;6.53;;;4.30;58.90;;;;;;5052141;28;20514;-62
2021/03/11 09:14:41;;;;;;;18.30;5.93;;;4.30;59.10;;;;;;5050132;28;20484;-60
2021/03/11 09:17:09;;;;;;;20.80;6.35;;;4.40;59.40;;;;;;5069583;28;20043;-60
2021/03/11 09:19:44;;;;;;;23.33;6.93;;;4.50;59.30;;;;;;5067510;28;20376;-62
2021/03/11 09:22:38;;;;;;;16.95;5.93;;;4.60;58.80;;;;;;5036655;28;20456;-62
2021/03/11 09:25:05;;;;;;;14.23;5.63;;;4.80;58.70;;;;;;5064244;28;20055;-61
2021/03/11 09:27:34;;;;;;;17.70;6.10;;;4.90;58.10;;;;;;5050618;28;20093;-62
2021/03/11 09:30:17;;;;;;;16.75;6.38;;;5.10;57.60;;;;;;5061861;28;20044;-62
2021/03/11 09:32:44;;;;;;;15.02;6.03;;;5.20;56.50;;;;;;5066032;28;20060;-62
2021/03/11 09:35:13;;;;;;;19.63;5.80;;;5.30;56.80;;;;;;5066466;28;20586;-62
2021/03/11 09:37:56;;;;;;;16.00;6.05;;;5.40;55.90;;;;;;5048377;28;20052;-62
2021/03/11 09:40:36;;;;;;;16.98;7.10;;;5.40;56.20;;;;;;5063454;28;20055;-62
2021/03/11 09:43:27;;;;;;;17.13;6.63;;;5.50;55.80;;;;;;5021157;28;20068;-61
2021/03/11 09:45:57;;;;;;;15.80;6.40;;;5.60;54.60;;;;;;5044822;28;20049;-60
2021/03/11 09:48:28;;;;;;;15.68;6.15;;;5.80;54.70;;;;;;5045493;28;20056;-60
2021/03/11 09:51:11;;;;;;;17.35;6.70;;;5.90;54.50;;;;;;5052259;28;20047;-60
2021/03/11 09:53:38;;;;;;;16.55;6.65;;;6.00;53.60;;;;;;5035953;28;20080;-60
2021/03/11 09:56:11;;;;;;;16.38;6.68;;;6.10;53.40;;;;;;5032376;28;20055;-60
2021/03/11 09:58:44;;;;;;;14.07;5.80;;;6.30;54.10;;;;;;5065744;28;20044;-60
2021/03/11 10:01:11;;;;;;;16.70;5.93;;;6.40;52.50;;;;;;5039411;28;20048;-60
2021/03/11 10:03:38;;;;;;;16.85;5.68;;;6.50;52.70;;;;;;5056380;28;20036;-60
2021/03/11 10:06:07;;;;;;;17.65;7.22;;;6.70;52.50;;;;;;5057398;28;20048;-60
2021/03/11 10:08:39;;;;;;;16.38;6.72;;;6.90;51.90;;;;;;5062390;28;20037;-60
2021/03/11 10:11:09;;;;;;;14.63;6.30;;;7.00;50.20;;;;;;5067304;28;20433;-61
2021/03/11 10:13:40;;;;;;;19.95;6.90;;;7.10;49.30;;;;;;5044934;28;20055;-60
2021/03/11 10:16:08;;;;;;;15.07;6.53;;;7.20;49.20;;;;;;5045600;28;20044;-61
2021/03/11 10:18:36;;;;;;;20.80;7.72;;;7.30;49.90;;;;;;5039166;28;20638;-61
2021/03/11 10:21:06;;;;;;;16.80;7.03;;;7.50;49.80;;;;;;5047423;28;20452;-61
2021/03/11 10:23:34;;;;;;;17.55;6.80;;;7.70;49.40;;;;;;5045294;28;20102;-62
2021/03/11 10:26:19;;;;;;;15.15;6.80;;;7.80;48.20;;;;;;5050278;28;20040;-62
2021/03/11 10:28:50;;;;;;;16.27;6.20;;;8.00;48.10;;;;;;5066091;28;20702;-61
2021/03/11 10:31:16;;;;;;;15.35;6.20;;;8.10;47.90;;;;;;5067155;28;20044;-60
2021/03/11 10:33:44;;;;;;;18.13;7.10;;;8.20;48.00;;;;;;5066047;28;20051;-60
2021/03/11 10:36:16;;;;;;;14.40;6.85;;;8.30;46.90;;;;;;5064234;28;20036;-60
2021/03/11 10:38:59;;;;;;;16.85;6.72;;;8.40;46.20;;;;;;5053297;28;20044;-61
2021/03/11 10:41:27;;;;;;;14.02;6.55;;;8.50;45.30;;;;;;5042723;28;20062;-62
2021/03/11 10:44:13;;;;;;;13.82;6.22;;;8.60;44.00;;;;;;5022655;28;20053;-62
2021/03/11 10:46:42;;;;;;;21.55;6.40;;;8.70;43.20;;;;;;5049781;28;20045;-62
2021/03/11 10:49:11;;;;;;;15.02;5.65;;;8.70;43.60;;;;;;5053403;28;20063;-61
2021/03/11 10:51:38;;;;;;;15.02;6.10;;;8.80;42.50;;;;;;5062345;28;20032;-61
2021/03/11 10:54:06;;;;;;;15.27;6.82;;;8.80;42.80;;;;;;5045199;28;20052;-63
2021/03/11 10:56:37;;;;;;;17.35;6.15;;;8.90;43.60;;;;;;5066015;28;20128;-64
2021/03/11 10:59:14;;;;;;;17.35;7.45;;;9.00;43.20;;;;;;5065099;28;20489;-63
2021/03/11 11:01:41;;;;;;;16.35;6.53;;;9.10;43.60;;;;;;5046420;28;20098;-62
2021/03/11 11:04:08;;;;;;;15.77;6.80;;;9.10;42.90;;;;;;5040435;28;20061;-61
2021/03/11 11:06:34;;;;;;;17.25;7.25;;;9.10;42.80;;;;;;5058658;28;20144;-62
2021/03/11 11:09:01;;;;;;;20.00;7.93;;;9.20;43.80;;;;;;5067786;28;20487;-61
2021/03/11 11:11:27;;;;;;;18.25;7.05;;;9.20;43.00;;;;;;5042460;28;20590;-61
2021/03/11 11:13:56;;;;;;;12.73;6.65;;;9.30;42.60;;;;;;5056264;28;20128;-61
2021/03/11 11:16:23;;;;;;;17.45;7.40;;;9.40;43.50;;;;;;5046124;28;20925;-62
2021/03/11 11:18:50;;;;;;;15.07;6.38;;;9.40;42.70;;;;;;5048174;28;20152;-62
2021/03/11 11:21:19;;;;;;;16.85;6.85;;;9.50;42.90;;;;;;5065752;28;20442;-61
2021/03/11 11:23:45;;;;;;;18.65;7.30;;;9.50;42.50;;;;;;5040857;28;20056;-62
2021/03/11 11:26:12;;;;;;;18.67;7.60;;;9.50;42.60;;;;;;5044428;28;20056;-62
2021/03/11 11:28:38;;;;;;;20.08;7.28;;;9.60;43.10;;;;;;5066466;28;20101;-62
2021/03/11 11:31:05;;;;;;;16.13;7.45;;;9.70;42.30;;;;;;5065050;28;20048;-62
2021/03/11 11:33:32;;;;;;;17.80;7.43;;;9.70;42.00;;;;;;5041124;28;20059;-62
2021/03/11 11:36:00;;;;;;;20.42;7.22;;;9.70;42.50;;;;;;5044456;28;20052;-62
2021/03/11 11:38:27;;;;;;;18.85;7.35;;;9.80;42.90;;;;;;5062859;28;20047;-62
2021/03/11 11:40:54;;;;;;;27.75;8.75;;;9.90;43.10;;;;;;5050199;28;20056;-62
2021/03/11 11:43:21;;;;;;;21.67;7.63;;;9.90;43.70;;;;;;5030531;28;20055;-68
2021/03/11 11:45:47;;;;;;;19.63;8.07;;;10.10;43.30;;;;;;5037142;28;20175;-65
2021/03/11 11:48:15;;;;;;;17.30;8.10;;;10.30;42.70;;;;;;5053066;28;20072;-64
2021/03/11 11:50:51;;;;;;;18.38;7.95;;;10.50;41.90;;;;;;5058944;28;20144;-65
2021/03/11 11:53:18;;;;;;;18.42;7.47;;;10.60;42.00;;;;;;5047181;28;20388;-65
2021/03/11 11:55:44;;;;;;;17.85;7.38;;;10.70;42.00;;;;;;5028017;28;20051;-65
2021/03/11 11:58:11;;;;;;;16.75;7.82;;;10.70;42.10;;;;;;5061344;28;20821;-61
2021/03/11 12:00:37;;;;;;;21.25;8.07;;;10.70;41.90;;;;;;5068105;28;20036;-64
2021/03/11 12:03:05;;;;;;;19.33;7.13;;;10.70;42.00;;;;;;5058953;28;20127;-65
2021/03/11 12:05:33;;;;;;;18.85;7.30;;;10.80;41.90;;;;;;5059069;28;26682;-65
2021/03/11 12:07:59;;;;;;;18.75;7.88;;;10.90;41.60;;;;;;5048884;28;20050;-65
2021/03/11 12:10:26;;;;;;;18.08;7.72;;;10.80;40.60;;;;;;5062274;28;20047;-65
2021/03/11 12:12:52;;;;;;;17.60;7.97;;;10.80;41.20;;;;;;5042606;28;20071;-66
2021/03/11 12:15:19;;;;;;;19.95;8.00;;;10.80;41.30;;;;;;5056843;28;20129;-66
2021/03/11 12:17:47;;;;;;;15.73;7.90;;;10.80;40.40;;;;;;5062006;28;20071;-65
2021/03/11 12:20:31;;;;;;;123.00;34.83;;;10.80;40.50;;;;;;5056108;28;20492;-65
2021/03/11 12:22:57;;;;;;;29.85;10.50;;;10.70;40.50;;;;;;5041531;28;20115;-64
2021/03/11 12:25:24;;;;;;;19.95;8.95;;;10.70;40.70;;;;;;5045588;28;20040;-64
2021/03/11 12:27:50;;;;;;;22.13;9.15;;;10.60;40.60;;;;;;5045436;28;20049;-65
2021/03/11 12:30:17;;;;;;;17.80;6.85;;;10.50;40.60;;;;;;5063739;28;20040;-64
2021/03/11 12:32:46;;;;;;;28.80;9.15;;;10.40;39.70;;;;;;5064595;28;20045;-64
2021/03/11 12:35:14;;;;;;;25.33;8.20;;;10.20;40.40;;;;;;5045698;28;20151;-64
2021/03/11 12:37:41;;;;;;;23.05;8.15;;;10.10;40.40;;;;;;5063174;28;20071;-64
2021/03/11 12:40:08;;;;;;;21.55;7.45;;;10.00;40.30;;;;;;5039514;28;20102;-64
2021/03/11 12:42:36;;;;;;;16.25;6.10;;;9.90;40.60;;;;;;5062432;28;20048;-64
2021/03/11 12:45:04;;;;;;;20.50;9.77;;;9.80;40.60;;;;;;5060347;28;20492;-65
2021/03/11 12:47:31;;;;;;;30.33;11.00;;;9.80;41.30;;;;;;5045327;28;20491;-64
2021/03/11 12:49:57;;;;;;;24.25;10.07;;;9.80;41.40;;;;;;5043029;28;20048;-64
2021/03/11 12:52:24;;;;;;;26.75;8.32;;;9.80;40.80;;;;;;5043223;28;20056;-65
2021/03/11 12:54:51;;;;;;;15.80;7.25;;;9.70;40.60;;;;;;5063202;28;20041;-62
2021/03/11 12:57:18;;;;;;;16.48;6.95;;;9.70;40.80;;;;;;5062942;28;20143;-62